Time;durP1;ratioP1;P1;durP2;ratioP2;P2;SDS_P1;SDS_P2;PMS_P1;PMS_P2;Temp;Humidity;BMP_temperature;BMP_pressure;BME280_temperature;BME280_humidity;BME280_pressure;Samples;Min_cycle;Max_cycle;Signal;HPM_P1;HPM_P2
2023/05/03 00:02:25;;;;;;;2.47;1.60;;;;;;;13.38;45.74;64362.25;5050762;28;20189;-60
2023/05/03 00:04:52;;;;;;;2.07;1.50;;;;;;;13.46;45.49;64367.94;5050575;28;20296;-57
2023/05/03 00:07:18;;;;;;;3.27;1.30;;;;;;;13.43;45.35;64367.72;5050714;28;20667;-56
2023/05/03 00:09:43;;;;;;;4.30;1.57;;;;;;;13.59;45.86;64384.75;5050983;28;20308;-56
2023/05/03 00:12:08;;;;;;;2.43;1.60;;;;;;;13.57;45.69;64377.50;5050799;28;20350;-59
2023/05/03 00:14:34;;;;;;;5.53;1.53;;;;;;;13.58;45.86;64380.56;5049685;28;20216;-57
2023/05/03 00:16:59;;;;;;;2.47;1.35;;;;;;;13.60;46.57;64383.31;5050849;28;20224;-56
2023/05/03 00:19:28;;;;;;;1.67;1.30;;;;;;;13.47;46.23;64369.56;5050782;28;20210;-56
2023/05/03 00:21:54;;;;;;;6.20;1.33;;;;;;;13.19;46.30;64340.84;5050741;28;20246;-60
2023/05/03 00:24:20;;;;;;;1.67;1.57;;;;;;;13.03;46.60;64321.28;5050407;28;20690;-57
2023/05/03 00:26:45;;;;;;;5.70;1.50;;;;;;;12.93;47.23;64312.81;5050515;28;20540;-56
2023/05/03 00:29:10;;;;;;;2.53;1.50;;;;;;;13.01;47.58;64316.53;5050810;28;20217;-58
2023/05/03 00:31:36;;;;;;;5.20;1.50;;;;;;;13.01;47.65;64316.53;5050550;28;20213;-57
2023/05/03 00:34:01;;;;;;;4.63;1.60;;;;;;;13.01;47.40;64319.06;5050761;28;20209;-60
2023/05/03 00:36:27;;;;;;;1.70;1.55;;;;;;;12.90;47.02;64307.03;5050417;28;20276;-59
2023/05/03 00:38:52;;;;;;;1.90;1.70;;;;;;;12.86;47.32;64302.63;5050548;28;20263;-57
2023/05/03 00:41:18;;;;;;;2.93;1.53;;;;;;;12.66;47.33;64280.69;5050435;28;20196;-56
2023/05/03 00:43:43;;;;;;;2.87;1.40;;;;;;;12.55;47.75;64271.69;5050638;28;20228;-56
2023/05/03 00:46:10;;;;;;;1.80;1.60;;;;;;;12.45;47.14;64260.19;5050436;28;20213;-56
2023/05/03 00:48:36;;;;;;;1.63;1.23;;;;;;;12.54;48.34;64265.00;5050461;28;20639;-59
2023/05/03 00:51:03;;;;;;;3.90;1.80;;;;;;;12.64;46.70;64278.50;5050475;28;20193;-55
2023/05/03 00:53:30;;;;;;;2.30;1.80;;;;;;;12.67;47.76;64281.78;5050277;28;20220;-59
2023/05/03 00:55:57;;;;;;;4.00;1.47;;;;;;;12.60;47.47;64274.66;5050265;28;20193;-55
2023/05/03 00:58:23;;;;;;;1.60;1.37;;;;;;;12.54;48.13;64268.06;5050104;28;20221;-57
2023/05/03 01:00:49;;;;;;;2.27;1.40;;;;;;;12.58;48.25;64272.44;5050275;28;20193;-61
2023/05/03 01:03:14;;;;;;;4.57;1.80;;;;;;;12.67;48.28;64281.78;5032399;28;20213;-55
2023/05/03 01:06:05;;;;;;;4.10;2.17;;;;;;;12.54;47.56;64270.06;5050075;28;20362;-57
2023/05/03 01:08:53;;;;;;;1.70;1.50;;;;;;;12.57;47.13;64271.38;5050046;28;20647;-57
2023/05/03 01:11:29;;;;;;;3.03;1.50;;;;;;;12.41;48.45;64253.81;5044219;28;20208;-56
2023/05/03 01:14:09;;;;;;;2.73;1.50;;;;;;;12.31;48.26;64239.78;5050349;28;20581;-56
2023/05/03 01:17:04;;;;;;;4.97;1.70;;;;;;;12.40;49.10;64250.19;5050056;28;20280;-57
2023/05/03 01:19:43;;;;;;;4.83;2.27;;;;;;;12.39;48.97;64251.63;5047985;28;20590;-55
2023/05/03 01:22:26;;;;;;;4.07;1.90;;;;;;;12.35;49.35;64249.75;5049946;28;20272;-59
2023/05/03 01:25:10;;;;;;;2.17;1.60;;;;;;;12.24;49.08;64234.63;5049987;28;20217;-58
2023/05/03 01:27:37;;;;;;;4.17;1.67;;;;;;;12.24;48.91;64237.69;5052780;28;20181;-57
2023/05/03 01:30:08;;;;;;;2.17;1.23;;;;;;;12.22;49.58;64235.50;5035252;28;20239;-56
2023/05/03 01:32:45;;;;;;;4.23;1.50;;;;;;;12.29;49.22;64237.59;5053153;28;20272;-57
2023/05/03 01:35:31;;;;;;;2.77;1.70;;;;;;;12.43;49.00;64256.00;5053172;28;20235;-59
2023/05/03 01:37:58;;;;;;;1.50;1.40;;;;;;;12.42;49.07;64259.44;5053461;28;22369;-58
2023/05/03 01:40:26;;;;;;;2.17;1.50;;;;;;;12.44;48.33;64256.56;5053186;28;20189;-59
2023/05/03 01:43:00;;;;;;;7.87;1.87;;;;;;;12.43;48.25;64257.97;5052997;28;20193;-59
2023/05/03 01:45:26;;;;;;;5.00;1.40;;;;;;;12.42;48.41;64254.38;5019506;28;20320;-59
2023/05/03 01:47:51;;;;;;;4.07;2.13;;;;;;;12.26;48.29;64239.34;5053051;28;20189;-56
2023/05/03 01:50:17;;;;;;;3.63;1.77;;;;;;;12.17;48.92;64227.50;5053016;28;20198;-59
2023/05/03 01:52:44;;;;;;;1.73;1.63;;;;;;;12.18;49.67;64228.06;5052881;28;20192;-56
2023/05/03 01:55:09;;;;;;;3.93;1.50;;;;;;;12.15;49.18;64224.75;5052784;28;20629;-56
2023/05/03 01:57:34;;;;;;;2.10;1.70;;;;;;;12.07;49.24;64216.00;5052737;28;20185;-55
2023/05/03 02:00:00;;;;;;;1.93;1.60;;;;;;;12.12;49.33;64222.00;5052830;28;20234;-55
2023/05/03 02:02:32;;;;;;;3.23;1.77;;;;;;;12.24;48.78;64234.63;5052963;28;20227;-59
2023/05/03 02:04:57;;;;;;;3.13;1.83;;;;;;;12.06;50.33;64215.44;5052502;28;20279;-57
2023/05/03 02:07:22;;;;;;;2.47;1.53;;;;;;;12.07;50.10;64216.53;5052682;28;20186;-56
2023/05/03 02:09:48;;;;;;;3.00;1.60;;;;;;;12.12;51.43;64224.00;5052765;28;20293;-59
2023/05/03 02:12:13;;;;;;;2.87;1.40;;;;;;;12.15;49.70;64227.84;5052588;28;20205;-55
2023/05/03 02:14:39;;;;;;;1.83;1.30;;;;;;;12.16;50.98;64233.44;5052516;28;20648;-57
2023/05/03 02:17:07;;;;;;;2.93;1.63;;;;;;;12.12;49.92;64221.47;5052496;28;20251;-57
2023/05/03 02:19:32;;;;;;;3.70;1.60;;;;;;;11.88;50.29;64197.69;5052461;28;20252;-54
2023/05/03 02:21:58;;;;;;;2.70;1.60;;;;;;;11.79;50.89;64188.94;5052469;28;20213;-55
2023/05/03 02:24:23;;;;;;;4.73;1.70;;;;;;;11.71;51.26;64180.16;5052681;28;20308;-55
2023/05/03 02:26:49;;;;;;;2.10;1.70;;;;;;;11.63;51.68;64168.31;5052109;28;20216;-56
2023/05/03 02:29:14;;;;;;;2.90;1.63;;;;;;;11.63;51.58;64168.84;5052410;28;20627;-58
2023/05/03 02:31:40;;;;;;;3.60;2.07;;;;;;;11.58;52.29;64163.38;5034560;28;20273;-58
2023/05/03 02:34:05;;;;;;;4.20;1.80;;;;;;;11.67;53.28;64173.25;5052403;28;20209;-57
2023/05/03 02:36:31;;;;;;;2.73;1.73;;;;;;;11.70;52.50;64173.47;5052195;28;20189;-56
2023/05/03 02:38:56;;;;;;;3.50;1.90;;;;;;;11.79;52.50;64188.38;5051318;28;20214;-56
2023/05/03 02:41:21;;;;;;;3.87;1.50;;;;;;;11.70;51.87;64175.97;5052295;28;20570;-59
2023/05/03 02:43:47;;;;;;;8.83;1.73;;;;;;;11.60;51.67;64165.00;5052172;28;20216;-60
2023/05/03 02:46:13;;;;;;;5.00;1.77;;;;;;;11.59;52.04;64164.47;5052115;28;20683;-55
2023/05/03 02:48:38;;;;;;;4.53;1.83;;;;;;;11.53;52.80;64154.81;5052243;28;20211;-55
2023/05/03 02:51:04;;;;;;;2.80;1.83;;;;;;;11.55;52.89;64160.06;5052112;28;20189;-57
2023/05/03 02:53:30;;;;;;;3.37;1.90;;;;;;;11.61;52.84;64166.66;5034166;28;20209;-59
2023/05/03 02:55:56;;;;;;;3.30;1.87;;;;;;;11.61;52.71;64166.66;5051957;28;20185;-56
2023/05/03 02:58:21;;;;;;;3.27;1.70;;;;;;;11.48;52.34;64154.94;5051702;28;20300;-58
2023/05/03 03:00:47;;;;;;;2.97;1.87;;;;;;;11.40;52.76;64143.66;5051981;28;20185;-59
2023/05/03 03:03:12;;;;;;;3.93;1.50;;;;;;;11.35;53.31;64138.16;5033809;28;20251;-59
2023/05/03 03:05:38;;;;;;;3.63;1.97;;;;;;;11.43;51.89;64146.91;5051600;28;20668;-60
2023/05/03 03:08:04;;;;;;;2.20;1.60;;;;;;;11.40;52.60;64143.66;5051580;28;20201;-59
2023/05/03 03:10:29;;;;;;;2.37;1.60;;;;;;;11.31;52.65;64136.28;5051688;28;20193;-55
2023/05/03 03:12:55;;;;;;;2.70;1.40;;;;;;;11.26;52.85;64130.84;5051675;28;20204;-57
2023/05/03 03:15:20;;;;;;;1.33;1.20;;;;;;;11.16;53.26;64119.88;5051422;28;20196;-57
2023/05/03 03:17:46;;;;;;;1.97;1.60;;;;;;;11.20;53.44;64121.19;5051456;28;20255;-57
2023/05/03 03:20:12;;;;;;;4.37;2.13;;;;;;;11.16;53.09;64119.88;5051622;28;20268;-55
2023/05/03 03:22:38;;;;;;;3.77;1.97;;;;;;;11.22;53.85;64125.91;5051221;28;20655;-55
2023/05/03 03:25:05;;;;;;;3.10;1.67;;;;;;;11.31;53.71;64133.25;5051284;28;20261;-56
2023/05/03 03:27:31;;;;;;;3.63;1.97;;;;;;;11.21;53.96;64124.81;5051040;28;20181;-55
2023/05/03 03:29:58;;;;;;;2.23;1.50;;;;;;;11.30;54.47;64135.22;5051261;28;20229;-55
2023/05/03 03:32:23;;;;;;;1.93;1.43;;;;;;;11.41;53.30;64147.25;5051201;28;20196;-59
2023/05/03 03:34:48;;;;;;;3.27;1.77;;;;;;;11.37;53.30;64142.34;5051382;28;20209;-59
2023/05/03 03:37:14;;;;;;;3.20;2.17;;;;;;;11.23;53.80;64125.00;5051324;28;20268;-57
2023/05/03 03:39:40;;;;;;;3.00;1.93;;;;;;;11.12;54.46;64112.44;5051401;28;20225;-56
2023/05/03 03:42:06;;;;;;;2.83;2.00;;;;;;;11.06;54.59;64105.84;5051166;28;20702;-55
2023/05/03 03:44:31;;;;;;;2.30;1.90;;;;;;;11.04;54.62;64103.66;5050933;28;20678;-55
2023/05/03 03:46:57;;;;;;;4.40;1.83;;;;;;;11.02;54.43;64102.03;5051035;28;20212;-58
2023/05/03 03:49:22;;;;;;;2.13;1.67;;;;;;;10.97;54.65;64096.53;5050762;28;20235;-58
2023/05/03 03:51:48;;;;;;;2.83;1.50;;;;;;;11.13;54.63;64114.06;5051088;28;20193;-55
2023/05/03 03:54:13;;;;;;;1.70;1.60;;;;;;;11.12;54.01;64115.50;5051306;28;20213;-56
2023/05/03 03:56:38;;;;;;;5.87;2.30;;;;;;;11.07;54.10;64107.50;5050870;28;20193;-56
2023/05/03 03:59:05;;;;;;;1.90;1.50;;;;;;;11.05;54.74;64107.81;5051071;28;20212;-58
2023/05/03 04:01:30;;;;;;;5.90;1.80;;;;;;;11.14;53.82;64120.22;5050755;28;20193;-57
2023/05/03 04:03:56;;;;;;;4.30;1.90;;;;;;;11.10;54.15;64113.31;5051076;28;20239;-61
2023/05/03 04:06:21;;;;;;;8.73;2.07;;;;;;;11.08;53.90;64110.56;5050608;28;20209;-58
2023/05/03 04:08:46;;;;;;;3.20;1.77;;;;;;;11.02;54.20;64104.00;5050830;28;20220;-55
2023/05/03 04:11:12;;;;;;;4.43;2.17;;;;;;;10.95;54.34;64097.44;5050700;28;20185;-55
2023/05/03 04:13:38;;;;;;;3.60;2.00;;;;;;;10.93;54.41;64095.22;5050526;28;20300;-57
2023/05/03 04:16:05;;;;;;;4.50;2.20;;;;;;;11.00;55.21;64097.31;5050621;28;20189;-57
2023/05/03 04:18:30;;;;;;;4.43;2.53;;;;;;;11.11;54.68;64113.84;5050921;28;20635;-56
2023/05/03 04:20:56;;;;;;;3.83;2.00;;;;;;;11.16;54.38;64119.88;5050652;28;20193;-58
2023/05/03 04:23:21;;;;;;;3.53;2.27;;;;;;;11.11;54.42;64111.88;5050509;28;20290;-61
2023/05/03 04:25:47;;;;;;;2.27;1.97;;;;;;;11.15;54.21;64118.78;5032345;28;20209;-58
2023/05/03 04:28:14;;;;;;;4.90;2.33;;;;;;;11.08;54.89;64106.06;5032611;28;20296;-56
2023/05/03 04:30:40;;;;;;;2.37;2.00;;;;;;;11.10;56.69;64112.75;5050423;28;20568;-59
2023/05/03 04:33:08;;;;;;;4.40;2.23;;;;;;;11.01;56.57;64100.91;5050275;28;20695;-57
2023/05/03 04:35:33;;;;;;;4.07;2.23;;;;;;;10.97;57.39;64094.56;5050436;28;20230;-58
2023/05/03 04:37:58;;;;;;;3.03;2.10;;;;;;;10.93;59.05;64095.22;5050672;28;20309;-56
2023/05/03 04:40:24;;;;;;;4.10;1.90;;;;;;;10.93;58.79;64094.69;5050477;28;20268;-58
2023/05/03 04:42:50;;;;;;;4.37;2.23;;;;;;;11.14;58.29;64117.69;5032426;28;20315;-55
2023/05/03 04:45:15;;;;;;;3.73;2.20;;;;;;;11.25;58.79;64127.19;5050563;28;20185;-56
2023/05/03 04:47:40;;;;;;;2.80;2.30;;;;;;;11.51;58.06;64155.69;5050120;28;20655;-56
2023/05/03 04:50:07;;;;;;;2.73;2.10;;;;;;;11.69;59.22;64175.44;5050308;28;20193;-55
2023/05/03 04:52:33;;;;;;;5.43;1.90;;;;;;;11.70;58.67;64179.06;5050128;28;20177;-56
2023/05/03 04:54:58;;;;;;;2.47;2.00;;;;;;;11.90;60.15;64199.88;5050179;28;20212;-57
2023/05/03 04:57:24;;;;;;;4.03;2.50;;;;;;;11.84;60.00;64190.78;5050119;28;20631;-55
2023/05/03 04:59:49;;;;;;;4.13;2.00;;;;;;;11.78;60.79;64182.78;5049733;28;20225;-59
2023/05/03 05:02:15;;;;;;;2.60;1.97;;;;;;;11.61;61.58;64169.19;5052565;28;20273;-57
2023/05/03 05:04:40;;;;;;;8.60;2.10;;;;;;;11.42;62.52;64148.34;5053743;28;20224;-60
2023/05/03 05:07:06;;;;;;;2.80;2.00;;;;;;;11.21;62.77;64122.28;5053388;28;20227;-57
2023/05/03 05:09:32;;;;;;;4.03;2.43;;;;;;;11.20;62.21;64121.19;5053885;28;20231;-59
2023/05/03 05:11:57;;;;;;;3.17;2.13;;;;;;;11.25;62.37;64126.66;5053509;28;20221;-59
2023/05/03 05:14:25;;;;;;;4.67;2.57;;;;;;;11.26;63.46;64127.75;5053508;28;20249;-59
2023/05/03 05:16:51;;;;;;;5.10;2.37;;;;;;;11.26;62.91;64130.84;5053360;28;20216;-57
2023/05/03 05:19:16;;;;;;;5.30;2.37;;;;;;;11.35;62.88;64137.63;5053233;28;20750;-58
2023/05/03 05:21:42;;;;;;;2.20;1.83;;;;;;;11.10;63.01;64112.75;5053600;28;20721;-56
2023/05/03 05:24:07;;;;;;;6.33;2.67;;;;;;;11.03;62.44;64103.09;5053509;28;20220;-56
2023/05/03 05:26:33;;;;;;;5.90;2.40;;;;;;;11.02;63.38;64102.03;5053415;28;20572;-56
2023/05/03 05:28:58;;;;;;;3.07;2.20;;;;;;;11.08;63.18;64108.59;5053537;28;20577;-57
2023/05/03 05:31:24;;;;;;;3.37;2.67;;;;;;;11.10;63.79;64112.75;5035356;28;20277;-58
2023/05/03 05:33:49;;;;;;;4.97;2.83;;;;;;;11.19;63.41;64122.63;5053321;28;20209;-57
2023/05/03 05:36:15;;;;;;;6.20;2.87;;;;;;;11.21;62.25;64122.81;5052986;28;20213;-57
2023/05/03 05:38:40;;;;;;;4.07;2.20;;;;;;;11.26;62.71;64128.31;5052970;28;20206;-57
2023/05/03 05:41:06;;;;;;;4.43;2.70;;;;;;;11.35;63.09;64137.63;5053014;28;20186;-57
2023/05/03 05:43:31;;;;;;;4.43;2.47;;;;;;;11.46;63.17;64152.75;5052917;28;20331;-58
2023/05/03 05:45:57;;;;;;;3.43;2.40;;;;;;;11.56;62.13;64163.69;5053046;28;20207;-58
2023/05/03 05:48:22;;;;;;;4.87;2.20;;;;;;;11.46;59.86;64147.69;5018811;28;20213;-56
2023/05/03 05:50:48;;;;;;;5.20;2.83;;;;;;;11.39;60.59;64139.47;5053033;28;20178;-56
2023/05/03 05:53:13;;;;;;;4.23;2.33;;;;;;;11.33;60.38;64137.97;5052966;28;20198;-56
2023/05/03 05:55:39;;;;;;;3.97;2.20;;;;;;;11.35;60.66;64138.16;5052764;28;20208;-54
2023/05/03 05:58:04;;;;;;;5.07;2.43;;;;;;;11.21;61.38;64122.81;5053200;28;20682;-59
2023/05/03 06:00:30;;;;;;;6.37;2.73;;;;;;;11.25;60.11;64126.66;5052759;28;20189;-59
2023/05/03 06:02:55;;;;;;;4.13;2.23;;;;;;;11.27;60.70;64131.38;5052767;28;20190;-60
2023/05/03 06:05:21;;;;;;;3.40;2.33;;;;;;;11.33;61.28;64138.50;5034821;28;20215;-61
2023/05/03 06:07:48;;;;;;;3.50;2.77;;;;;;;11.46;61.20;64152.19;5034824;28;20670;-58
2023/05/03 06:10:13;;;;;;;6.87;3.33;;;;;;;11.53;60.47;64159.88;5052637;28;20181;-55
2023/05/03 06:12:39;;;;;;;3.77;2.70;;;;;;;11.51;61.79;64158.22;5034606;28;20568;-63
2023/05/03 06:15:06;;;;;;;5.63;2.80;;;;;;;11.65;60.65;64173.56;5052883;28;20186;-61
2023/05/03 06:17:31;;;;;;;5.93;3.10;;;;;;;11.65;60.28;64173.56;5052671;28;20560;-59
2023/05/03 06:19:57;;;;;;;6.63;2.50;;;;;;;11.75;62.42;64184.00;5052415;28;20205;-61
2023/05/03 06:22:23;;;;;;;3.73;2.37;;;;;;;11.82;60.97;64189.69;5052388;28;20671;-58
2023/05/03 06:24:49;;;;;;;4.97;2.90;;;;;;;11.98;58.90;64206.13;5052167;28;20312;-63
2023/05/03 06:27:15;;;;;;;2.63;2.43;;;;;;;11.80;60.66;64186.94;5052373;28;20292;-57
2023/05/03 06:29:43;;;;;;;4.17;2.70;;;;;;;11.72;60.78;64178.72;5051940;28;20265;-58
2023/05/03 06:32:08;;;;;;;2.87;2.20;;;;;;;11.82;61.26;64188.59;5034553;28;20211;-60
2023/05/03 06:34:34;;;;;;;4.33;2.17;;;;;;;11.78;61.54;64187.28;5052959;28;20292;-58
2023/05/03 06:36:59;;;;;;;3.47;2.70;;;;;;;11.88;62.22;64197.69;5052222;28;20674;-57
2023/05/03 06:39:25;;;;;;;7.90;2.70;;;;;;;11.97;61.91;64208.09;5052216;28;20736;-59
2023/05/03 06:41:50;;;;;;;4.27;2.47;;;;;;;11.97;62.60;64208.09;5052276;28;20186;-56
2023/05/03 06:44:16;;;;;;;3.63;2.57;;;;;;;12.12;61.67;64224.53;5052194;28;20207;-57
2023/05/03 06:46:42;;;;;;;3.73;2.20;;;;;;;12.08;60.37;64219.63;5051854;28;20206;-57
2023/05/03 06:49:07;;;;;;;10.03;2.40;;;;;;;11.84;60.10;64193.31;5051916;28;20216;-58
2023/05/03 06:51:33;;;;;;;7.83;3.07;;;;;;;11.84;61.89;64190.78;5052060;28;20685;-57
2023/05/03 06:54:05;;;;;;;5.23;3.03;;;;;;;11.96;62.53;64206.47;5052241;28;20205;-56
2023/05/03 06:56:31;;;;;;;2.37;2.20;;;;;;;12.02;61.11;64208.00;5051918;28;20605;-55
2023/05/03 06:58:57;;;;;;;3.83;2.17;;;;;;;12.07;63.75;64216.00;5052232;28;21260;-59
2023/05/03 07:01:22;;;;;;;5.17;1.90;;;;;;;12.12;60.09;64222.00;5051964;28;20194;-58
2023/05/03 07:03:48;;;;;;;4.83;2.17;;;;;;;12.13;59.38;64225.09;5052028;28;20193;-55
2023/05/03 07:06:14;;;;;;;3.20;2.23;;;;;;;12.00;59.90;64211.38;5051742;28;20217;-57
2023/05/03 07:08:39;;;;;;;2.57;2.37;;;;;;;11.91;62.20;64198.44;5051489;28;20210;-56
2023/05/03 07:11:05;;;;;;;6.57;2.50;;;;;;;11.93;61.86;64203.16;5051870;28;20186;-57
2023/05/03 07:13:30;;;;;;;4.40;2.57;;;;;;;11.85;61.69;64194.94;5051598;28;20216;-55
2023/05/03 07:15:56;;;;;;;5.67;2.40;;;;;;;12.01;62.57;64209.41;5051690;28;20209;-56
2023/05/03 07:18:21;;;;;;;8.23;2.67;;;;;;;12.11;62.41;64222.91;5052240;28;20205;-61
2023/05/03 07:20:47;;;;;;;7.33;2.63;;;;;;;12.02;61.45;64213.03;5033704;28;20185;-57
2023/05/03 07:23:14;;;;;;;5.43;2.53;;;;;;;12.15;63.15;64227.28;5033438;28;20687;-54
2023/05/03 07:25:41;;;;;;;9.07;2.37;;;;;;;12.32;63.64;64241.41;5051118;28;20212;-57
2023/05/03 07:28:06;;;;;;;4.03;2.50;;;;;;;12.32;61.57;64243.41;5051487;28;20205;-58
2023/05/03 07:30:31;;;;;;;3.83;2.60;;;;;;;12.22;61.65;64232.44;5051567;28;20686;-58
2023/05/03 07:32:57;;;;;;;2.77;2.47;;;;;;;12.21;62.29;64228.81;5051492;28;20224;-57
2023/05/03 07:35:22;;;;;;;5.13;2.20;;;;;;;12.14;62.09;64226.72;5051369;28;21172;-55
2023/05/03 07:37:48;;;;;;;5.40;1.90;;;;;;;11.95;63.50;64202.84;5051522;28;20181;-55
2023/05/03 07:40:13;;;;;;;4.63;2.70;;;;;;;12.05;63.97;64213.78;5051460;28;20689;-57
2023/05/03 07:42:39;;;;;;;6.30;2.20;;;;;;;12.30;63.72;64241.22;5051279;28;20192;-57
2023/05/03 07:45:05;;;;;;;3.87;2.40;;;;;;;12.35;63.87;64249.75;5051373;28;20239;-56
2023/05/03 07:47:31;;;;;;;4.10;2.70;;;;;;;12.33;62.01;64244.50;5051256;28;20201;-55
2023/05/03 07:49:57;;;;;;;7.23;2.83;;;;;;;12.24;63.96;64235.16;5051247;28;20214;-56
2023/05/03 07:52:22;;;;;;;4.20;2.23;;;;;;;12.31;63.50;64244.81;5051206;28;20182;-55
2023/05/03 07:54:48;;;;;;;3.00;2.70;;;;;;;12.41;63.12;64253.81;5033299;28;20576;-58
2023/05/03 07:57:15;;;;;;;3.30;2.53;;;;;;;11.94;64.42;64204.81;5051169;28;20193;-60
2023/05/03 07:59:42;;;;;;;5.87;2.80;;;;;;;12.28;64.22;64239.56;5050934;28;20722;-56
2023/05/03 08:02:08;;;;;;;4.83;3.17;;;;;;;12.29;64.02;64240.66;5050838;28;20185;-58
2023/05/03 08:04:33;;;;;;;4.03;2.73;;;;;;;12.68;65.37;64279.81;5051204;28;20212;-57
2023/05/03 08:07:03;;;;;;;4.37;2.53;;;;;;;12.98;64.86;64318.31;5050899;28;20209;-60
2023/05/03 08:09:29;;;;;;;4.33;2.90;;;;;;;13.06;63.09;64324.59;5051238;28;20652;-54
2023/05/03 08:11:55;;;;;;;4.87;2.67;;;;;;;13.12;62.21;64330.63;5050964;28;20647;-57
2023/05/03 08:14:21;;;;;;;9.57;4.20;;;;;;;13.12;62.54;64331.19;5050830;28;20221;-56
2023/05/03 08:16:47;;;;;;;4.37;3.20;;;;;;;13.59;63.44;64381.66;5050581;28;20264;-57
2023/05/03 08:19:13;;;;;;;2.80;2.30;;;;;;;13.69;61.38;64392.66;5050856;28;20211;-57
2023/05/03 08:21:38;;;;;;;3.50;2.50;;;;;;;13.95;62.23;64421.19;5050764;28;20193;-61
2023/05/03 08:24:07;;;;;;;4.03;2.90;;;;;;;14.19;60.42;64448.09;5050802;28;20233;-57
2023/05/03 08:26:34;;;;;;;5.33;2.93;;;;;;;14.08;59.29;64438.00;5050454;28;20216;-56
2023/05/03 08:29:02;;;;;;;3.80;2.50;;;;;;;14.17;60.28;64447.91;5050862;28;20205;-55
2023/05/03 08:31:27;;;;;;;4.80;2.50;;;;;;;14.37;59.63;64467.34;5050513;28;20193;-59
2023/05/03 08:33:55;;;;;;;5.10;2.40;;;;;;;14.22;60.22;64451.41;5050710;28;20228;-57
2023/05/03 08:36:20;;;;;;;4.90;2.80;;;;;;;14.59;60.23;64490.97;5051692;28;20189;-59
2023/05/03 08:38:46;;;;;;;3.97;3.13;;;;;;;14.92;60.28;64527.25;5054171;28;20748;-57
2023/05/03 08:41:24;;;;;;;5.63;2.50;;;;;;;15.20;59.19;64557.47;5054207;28;20177;-58
2023/05/03 08:43:54;;;;;;;3.88;2.70;;;;;;;15.28;58.12;64566.81;5053779;28;20225;-57
2023/05/03 08:46:20;;;;;;;3.78;3.03;;;;;;;15.27;57.94;64565.19;5053813;28;20278;-57
2023/05/03 08:48:51;;;;;;;6.85;3.60;;;;;;;15.82;57.55;64623.72;5054035;28;20675;-56
2023/05/03 08:51:17;;;;;;;3.95;2.97;;;;;;;16.22;55.14;64669.72;5053858;28;20185;-57
2023/05/03 08:53:43;;;;;;;3.28;2.97;;;;;;;15.87;55.82;64628.66;5053930;28;20221;-55
2023/05/03 08:56:11;;;;;;;4.95;2.75;;;;;;;15.35;55.25;64577.06;5053832;28;20185;-58
2023/05/03 08:58:37;;;;;;;3.35;2.78;;;;;;;15.25;56.58;64562.97;5054021;28;20205;-59
2023/05/03 09:01:06;;;;;;;5.35;2.50;;;;;;;15.26;57.45;64566.63;5053725;28;20193;-59
2023/05/03 09:03:33;;;;;;;7.43;5.78;;;;;;;15.44;59.12;64586.97;5053616;28;20213;-59
2023/05/03 09:06:02;;;;;;;7.50;4.88;;;;;;;15.76;58.36;64619.09;5053488;28;20213;-59
2023/05/03 09:08:29;;;;;;;3.88;3.28;;;;;;;16.17;56.02;64661.66;5053593;28;20210;-59
2023/05/03 09:10:56;;;;;;;9.15;6.25;;;;;;;15.73;57.20;64615.81;5053611;28;20182;-59
2023/05/03 09:13:28;;;;;;;3.00;2.72;;;;;;;16.46;54.79;64693.59;5035706;28;20578;-57
2023/05/03 09:15:56;;;;;;;4.72;2.33;;;;;;;17.03;55.24;64755.81;5053551;28;20193;-57
2023/05/03 09:18:22;;;;;;;4.20;3.20;;;;;;;16.79;54.24;64729.41;5053486;28;20394;-58
2023/05/03 09:20:52;;;;;;;3.92;2.90;;;;;;;17.14;53.62;64767.41;5053699;28;20571;-58
2023/05/03 09:23:25;;;;;;;4.47;3.15;;;;;;;16.62;54.26;64711.22;5053315;28;20243;-59
2023/05/03 09:25:51;;;;;;;3.45;2.92;;;;;;;17.27;53.12;64784.81;5053401;28;20292;-57
2023/05/03 09:28:18;;;;;;;5.95;3.22;;;;;;;17.22;54.19;64781.84;5035693;28;20712;-59
2023/05/03 09:30:45;;;;;;;5.70;3.55;;;;;;;17.19;53.13;64775.47;5053378;28;20560;-57
2023/05/03 09:33:11;;;;;;;3.38;3.08;;;;;;;17.69;54.15;64830.56;5053363;28;20220;-56
2023/05/03 09:35:37;;;;;;;4.80;2.78;;;;;;;17.92;52.00;64855.91;5053124;28;20186;-59
2023/05/03 09:38:03;;;;;;;4.18;2.80;;;;;;;17.77;52.51;64839.41;5053208;28;20201;-58
2023/05/03 09:40:29;;;;;;;3.83;3.05;;;;;;;17.67;51.66;64825.28;5053223;28;20204;-57
2023/05/03 09:43:06;;;;;;;4.38;2.80;;;;;;;18.16;50.96;64879.84;5053095;28;20189;-58
2023/05/03 09:45:33;;;;;;;2.78;2.38;;;;;;;18.94;50.80;64967.91;5052849;28;20212;-59
2023/05/03 09:48:01;;;;;;;3.97;2.33;;;;;;;19.09;47.22;64978.78;5052426;28;20296;-60
2023/05/03 09:50:26;;;;;;;3.60;2.50;;;;;;;19.58;48.32;65037.47;5053219;28;20644;-58
2023/05/03 09:52:54;;;;;;;5.45;2.70;;;;;;;19.87;46.32;65067.50;5035184;28;20651;-57
2023/05/03 09:55:20;;;;;;;2.45;2.25;;;;;;;20.58;44.93;65145.38;5052984;28;20200;-60
2023/05/03 09:57:46;;;;;;;3.13;2.28;;;;;;;20.44;45.15;65129.38;5052646;28;20182;-58
2023/05/03 10:00:15;;;;;;;4.28;2.60;;;;;;;20.62;44.67;65147.25;5052905;28;20193;-57
2023/05/03 10:02:41;;;;;;;3.47;2.50;;;;;;;21.37;45.42;65231.66;5052716;28;20185;-58
2023/05/03 10:05:10;;;;;;;4.70;2.50;;;;;;;21.62;44.48;65264.44;5052715;28;20190;-58
2023/05/03 10:07:39;;;;;;;2.78;2.40;;;;;;;20.74;44.36;65163.09;5052728;28;20292;-60
2023/05/03 10:10:06;;;;;;;3.65;2.53;;;;;;;20.75;45.54;65164.19;5034829;28;20197;-59
2023/05/03 10:12:34;;;;;;;3.10;2.60;;;;;;;20.18;45.18;65101.16;5052602;28;20560;-60
2023/05/03 10:15:05;;;;;;;5.90;3.00;;;;;;;20.24;46.46;65110.38;5052295;28;20250;-60
2023/05/03 10:17:33;;;;;;;3.80;2.60;;;;;;;20.32;45.16;65116.66;5034627;28;20182;-58
2023/05/03 10:20:19;;;;;;;4.82;2.40;;;;;;;20.62;45.21;65149.28;5052404;28;20217;-60
2023/05/03 10:23:03;;;;;;;3.30;2.65;;;;;;;20.95;46.11;65182.63;5052282;28;20187;-60
2023/05/03 10:25:29;;;;;;;3.00;2.60;;;;;;;20.65;46.31;65153.13;5052523;28;20228;-59
2023/05/03 10:28:02;;;;;;;3.92;2.80;;;;;;;20.14;45.54;65096.22;5052632;28;20205;-60
2023/05/03 10:30:35;;;;;;;2.92;2.65;;;;;;;19.98;46.62;65084.75;5052381;28;20257;-60
2023/05/03 10:33:36;;;;;;;5.55;2.88;;;;;;;19.57;48.42;65034.38;5052304;28;20212;-57
2023/05/03 10:36:06;;;;;;;6.63;2.80;;;;;;;19.59;46.87;65036.56;5048300;28;20662;-57
2023/05/03 10:38:31;;;;;;;6.22;2.45;;;;;;;19.48;48.15;65023.88;5052453;28;20210;-55
2023/05/03 10:41:00;;;;;;;7.10;3.00;;;;;;;19.05;48.57;64979.47;5052301;28;20681;-56
2023/05/03 10:43:31;;;;;;;5.63;2.83;;;;;;;19.16;48.16;64986.53;5052499;28;20228;-56
2023/05/03 10:46:04;;;;;;;3.88;2.40;;;;;;;18.73;48.74;64941.63;5052144;28;20215;-56
2023/05/03 10:48:30;;;;;;;6.75;2.38;;;;;;;19.00;48.58;64973.97;5052386;28;20249;-56
2023/05/03 10:51:16;;;;;;;4.85;2.38;;;;;;;18.95;50.93;64965.88;5052014;28;20197;-62
2023/05/03 10:53:43;;;;;;;4.20;2.83;;;;;;;18.89;50.86;64959.81;5051972;28;20296;-57
2023/05/03 10:56:11;;;;;;;4.90;2.65;;;;;;;18.71;50.66;64939.41;5051999;28;20189;-57
2023/05/03 10:58:47;;;;;;;4.57;2.83;;;;;;;18.63;51.40;64930.59;5050946;28;20217;-57
2023/05/03 11:01:15;;;;;;;3.17;2.42;;;;;;;18.56;50.26;64928.53;5034146;28;20185;-60
2023/05/03 11:04:27;;;;;;;3.03;2.22;;;;;;;18.39;50.07;64904.66;5052221;28;20221;-57
2023/05/03 11:06:55;;;;;;;2.90;2.25;;;;;;;18.48;48.91;64916.59;5051186;28;20220;-57
2023/05/03 11:09:30;;;;;;;3.47;2.80;;;;;;;18.62;48.10;64929.50;5052049;28;20296;-62
2023/05/03 11:11:55;;;;;;;3.45;2.63;;;;;;;18.27;49.67;64891.41;5052039;28;20181;-60
2023/05/03 11:14:21;;;;;;;5.15;2.53;;;;;;;18.41;51.20;64909.97;5051945;28;20296;-56
2023/05/03 11:16:49;;;;;;;3.13;2.17;;;;;;;18.36;50.09;64901.34;5051720;28;20224;-57
2023/05/03 11:19:15;;;;;;;5.45;2.58;;;;;;;18.12;50.12;64872.88;5051757;28;20209;-57
2023/05/03 11:21:42;;;;;;;3.85;2.50;;;;;;;17.87;50.81;64850.41;5051726;28;20208;-57
2023/05/03 11:24:08;;;;;;;4.28;2.20;;;;;;;17.97;51.19;64858.91;5051873;28;20248;-57
2023/05/03 11:26:37;;;;;;;5.10;2.95;;;;;;;17.92;51.38;64857.91;5051428;28;20301;-57
2023/05/03 11:29:03;;;;;;;3.97;2.60;;;;;;;18.03;50.94;64865.50;5051894;28;20288;-58
2023/05/03 11:31:29;;;;;;;4.18;2.63;;;;;;;18.47;51.29;64912.94;5051415;28;20193;-58
2023/05/03 11:33:55;;;;;;;3.63;2.30;;;;;;;18.98;50.24;64971.75;5033739;28;20220;-62
2023/05/03 11:36:20;;;;;;;5.15;2.72;;;;;;;19.96;48.62;65079.44;5051702;28;20246;-56